createdAt,value
2023-01-13T00:00:26.340Z,1.13
2023-01-13T00:04:27.947Z,0.52
2023-01-13T00:08:29.820Z,1.02
2023-01-13T00:12:31.544Z,2.50
2023-01-13T00:16:33.038Z,3.67
2023-01-13T00:20:34.637Z,1.25
2023-01-13T00:24:36.191Z,1.98
2023-01-13T00:28:37.871Z,1.35
2023-01-13T00:32:39.561Z,0.55
2023-01-13T00:36:41.155Z,1.52
2023-01-13T00:40:42.733Z,1.20
2023-01-13T00:44:44.357Z,0.30
2023-01-13T00:48:46.936Z,1.27
2023-01-13T00:52:48.495Z,0.75
2023-01-13T00:56:50.045Z,0.73
2023-01-13T01:00:51.734Z,1.17
2023-01-13T01:04:53.423Z,0.93
2023-01-13T01:08:55.664Z,1.13
2023-01-13T01:12:57.417Z,1.70
2023-01-13T01:16:59.431Z,0.80
2023-01-13T01:21:01.535Z,1.00
2023-01-13T01:25:03.314Z,1.17
2023-01-13T01:29:04.918Z,1.02
2023-01-13T01:33:06.615Z,1.58
2023-01-13T01:37:08.584Z,1.42
2023-01-13T01:41:14.826Z,1.35
2023-01-13T01:45:22.551Z,0.93
2023-01-13T01:49:33.715Z,1.13
2023-01-13T01:53:35.395Z,1.17
2023-01-13T01:57:58.479Z,0.30
2023-01-13T02:02:00.557Z,1.52
2023-01-13T02:06:03.135Z,2.28
2023-01-13T02:10:08.747Z,0.57
2023-01-13T02:14:10.336Z,1.40
2023-01-13T02:18:17.632Z,1.15
2023-01-13T02:22:22.351Z,1.15
2023-01-13T02:27:02.651Z,2.17
2023-01-13T02:31:33.112Z,1.33
2023-01-13T02:35:58.523Z,1.10
2023-01-13T02:40:11.989Z,0.65
2023-01-13T02:44:20.473Z,0.43
2023-01-13T02:48:24.040Z,2.05
2023-01-13T02:52:33.173Z,0.85
2023-01-13T02:56:40.139Z,1.45
2023-01-13T03:00:42.552Z,0.65
2023-01-13T03:04:57.843Z,0.98
2023-01-13T03:09:15.356Z,0.63
2023-01-13T03:13:16.828Z,1.25
2023-01-13T03:17:37.717Z,2.63
2023-01-13T03:21:49.930Z,0.75
2023-01-13T03:30:10.682Z,1.10
2023-01-13T03:34:21.189Z,1.10
2023-01-13T03:38:36.627Z,1.15
2023-01-13T03:43:03.181Z,0.63
2023-01-13T03:47:21.692Z,0.50
2023-01-13T03:55:31.318Z,0.90
2023-01-13T03:59:38.423Z,0.40
2023-01-13T04:04:00.370Z,1.27
2023-01-13T04:08:21.455Z,0.95
2023-01-13T04:12:49.947Z,0.93
2023-01-13T04:16:52.771Z,0.20
2023-01-13T04:20:57.014Z,1.52
2023-01-13T04:24:58.615Z,1.48
2023-01-13T04:29:00.080Z,0.88
2023-01-13T04:33:01.898Z,1.10
2023-01-13T04:37:03.543Z,0.82
2023-01-13T04:41:05.205Z,0.65
2023-01-13T04:45:07.869Z,0.82
2023-01-13T04:49:09.387Z,1.27
2023-01-13T04:53:11.402Z,1.83
2023-01-13T04:57:12.865Z,0.73
2023-01-13T05:01:14.648Z,0.50
2023-01-13T05:05:16.432Z,1.17
2023-01-13T05:09:18.173Z,0.25
2023-01-13T05:13:38.503Z,0.52
2023-01-13T05:17:40.855Z,0.70
2023-01-13T05:22:20.755Z,0.63
2023-01-13T05:26:23.219Z,1.00
2023-01-13T05:30:28.113Z,0.05
2023-01-13T05:34:29.809Z,1.35
2023-01-13T05:38:31.354Z,1.02
2023-01-13T05:42:52.073Z,0.40
2023-01-13T05:46:53.761Z,0.93
2023-01-13T05:50:55.694Z,0.55
2023-01-13T05:54:57.181Z,0.57
2023-01-13T05:58:58.913Z,1.70
2023-01-13T06:03:00.619Z,0.22
2023-01-13T06:07:02.273Z,0.77
2023-01-13T06:11:03.804Z,1.83
2023-01-13T06:15:05.949Z,2.95
2023-01-13T06:19:09.278Z,1.90
2023-01-13T06:23:11.822Z,1.17
2023-01-13T06:27:13.559Z,1.42
2023-01-13T06:31:15.852Z,1.23
2023-01-13T06:35:21.530Z,1.58
2023-01-13T06:39:29.002Z,0.52
2023-01-13T06:43:30.593Z,0.22
2023-01-13T06:47:32.416Z,1.65
2023-01-13T06:51:34.060Z,1.50
2023-01-13T06:55:36.474Z,0.70
2023-01-13T07:05:44.351Z,1.33
2023-01-13T07:09:46.178Z,0.90
2023-01-13T07:14:06.447Z,2.10
2023-01-13T07:18:08.101Z,0.22
2023-01-13T07:22:09.722Z,1.67
2023-01-13T07:27:01.574Z,0.25
2023-01-13T07:31:03.767Z,1.23
2023-01-13T07:35:05.972Z,0.82
2023-01-13T07:39:57.874Z,0.73
2023-01-13T07:45:04.898Z,0.32
2023-01-13T07:49:56.756Z,0.95
2023-01-13T07:53:58.422Z,0.50
2023-01-13T07:58:35.232Z,0.85
2023-01-13T08:03:26.656Z,0.38
2023-01-13T08:07:28.165Z,2.47
2023-01-13T08:11:29.643Z,0.50
2023-01-13T08:15:32.320Z,1.20
2023-01-13T08:20:08.372Z,0.75
2023-01-13T08:24:59.758Z,1.65
2023-01-13T08:29:51.748Z,1.38
2023-01-13T08:34:43.762Z,1.90
2023-01-13T08:39:36.152Z,0.35
2023-01-13T08:44:03.111Z,0.65
2023-01-13T08:48:05.123Z,0.47
2023-01-13T08:52:56.795Z,2.15
2023-01-13T09:02:59.419Z,1.23
2023-01-13T09:07:02.152Z,1.05
2023-01-13T09:11:24.176Z,0.80
2023-01-13T09:15:25.725Z,0.35
2023-01-13T09:19:28.966Z,0.38
2023-01-13T09:23:30.491Z,0.47
2023-01-13T09:27:32.255Z,0.57
2023-01-13T09:31:34.328Z,2.47
2023-01-13T09:35:36.450Z,0.32
2023-01-13T09:39:38.051Z,1.65
2023-01-13T09:43:55.501Z,0.30
2023-01-13T09:48:06.955Z,1.15
2023-01-13T09:52:19.221Z,0.68
2023-01-13T09:56:21.438Z,1.23
2023-01-13T10:00:25.759Z,1.02
2023-01-13T10:04:28.016Z,1.00
2023-01-13T10:08:36.168Z,3.28
2023-01-13T10:12:56.529Z,1.38
2023-01-13T10:17:25.906Z,2.45
2023-01-13T10:21:33.560Z,1.17
2023-01-13T10:25:53.866Z,1.02
2023-01-13T10:29:55.998Z,2.40
2023-01-13T10:34:06.212Z,0.85
2023-01-13T10:38:17.066Z,1.35
2023-01-13T10:42:22.830Z,0.77
2023-01-13T10:46:24.760Z,1.70
2023-01-13T10:50:29.640Z,2.25
2023-01-13T10:54:31.492Z,3.00
2023-01-13T10:58:33.025Z,3.08
2023-01-13T11:02:35.876Z,0.88
2023-01-13T11:06:37.953Z,2.80
2023-01-13T11:10:46.441Z,2.47
2023-01-13T11:14:49.422Z,1.20
2023-01-13T11:19:12.455Z,1.75
2023-01-13T11:23:22.639Z,3.03
2023-01-13T11:27:38.128Z,2.50
2023-01-13T11:31:46.152Z,2.80
2023-01-13T11:36:02.003Z,1.02
2023-01-13T11:40:05.346Z,2.65
2023-01-13T11:44:09.925Z,1.60
2023-01-13T11:48:17.703Z,1.85
2023-01-13T11:52:32.036Z,2.58
2023-01-13T11:56:47.723Z,1.75
2023-01-13T12:01:23.736Z,0.20
2023-01-13T12:05:29.551Z,1.30
2023-01-13T12:09:48.055Z,1.00
2023-01-13T12:14:11.503Z,0.70
2023-01-13T12:18:38.206Z,2.33
2023-01-13T12:22:42.404Z,1.90
2023-01-13T12:26:51.066Z,2.05
2023-01-13T12:30:59.594Z,1.05
2023-01-13T12:35:22.940Z,1.48
2023-01-13T12:39:43.290Z,2.30
2023-01-13T12:44:07.226Z,1.33
2023-01-13T12:52:43.945Z,1.75
2023-01-13T12:56:45.798Z,2.30
2023-01-13T13:00:49.651Z,1.00
2023-01-13T13:04:55.988Z,2.92
2023-01-13T13:09:20.766Z,3.03
2023-01-13T13:13:43.575Z,2.60
2023-01-13T13:18:00.184Z,1.67
2023-01-13T13:22:14.432Z,2.90
2023-01-13T13:26:23.733Z,1.50
2023-01-13T13:30:35.189Z,2.05
2023-01-13T13:39:37.547Z,1.55
2023-01-13T13:44:02.287Z,1.17
2023-01-13T13:48:23.631Z,1.35
2023-01-13T13:52:54.134Z,1.50
2023-01-13T13:56:56.220Z,1.05
2023-01-13T14:00:58.443Z,3.30
2023-01-13T14:05:52.137Z,3.10
2023-01-13T14:09:54.747Z,2.63
2023-01-13T14:14:05.174Z,2.15
2023-01-13T14:18:13.616Z,1.40
2023-01-13T14:22:21.966Z,2.58
2023-01-13T14:26:29.586Z,1.40
2023-01-13T14:30:32.824Z,3.20
2023-01-13T14:34:35.536Z,4.22
2023-01-13T14:38:39.282Z,2.97
2023-01-13T14:42:43.670Z,2.05
2023-01-13T14:46:45.952Z,1.58
2023-01-13T14:50:47.688Z,3.53
2023-01-13T14:55:11.709Z,3.53
2023-01-13T14:59:35.372Z,1.77
2023-01-13T15:03:42.025Z,2.88
2023-01-13T15:08:06.665Z,3.20
2023-01-13T15:12:28.424Z,2.25
2023-01-13T15:23:01.326Z,4.03
2023-01-13T15:27:52.682Z,1.98
2023-01-13T15:32:44.684Z,1.27
2023-01-13T15:37:56.743Z,0.25
2023-01-13T15:42:18.237Z,1.02
2023-01-13T15:46:38.511Z,0.75
2023-01-13T15:50:40.363Z,0.80
2023-01-13T15:54:41.892Z,1.50
2023-01-13T15:58:43.656Z,1.90
2023-01-13T16:02:45.317Z,4.10
2023-01-13T16:06:47.414Z,1.92
2023-01-13T16:10:50.033Z,2.35
2023-01-13T16:14:51.707Z,1.50
2023-01-13T16:18:54.233Z,1.83
2023-01-13T16:22:58.901Z,2.17
2023-01-13T16:27:00.380Z,3.53
2023-01-13T16:31:15.969Z,2.22
2023-01-13T16:35:18.956Z,4.30
2023-01-13T16:39:22.116Z,3.20
2023-01-13T16:43:23.691Z,4.28
2023-01-13T16:47:25.292Z,3.58
2023-01-13T16:51:26.774Z,4.07
2023-01-13T16:55:28.398Z,4.65
2023-01-13T16:59:29.993Z,3.60
2023-01-13T17:03:35.983Z,4.75
2023-01-13T17:07:37.773Z,13.43
2023-01-13T17:11:39.688Z,7.97
2023-01-13T17:15:41.547Z,14.40
2023-01-13T17:19:43.476Z,5.95
2023-01-13T17:23:45.509Z,7.63
2023-01-13T17:27:47.081Z,22.90
2023-01-13T17:31:52.608Z,4.50
2023-01-13T17:35:54.411Z,5.28
2023-01-13T17:39:55.977Z,3.40
2023-01-13T17:43:57.589Z,3.53
2023-01-13T17:47:59.387Z,3.47
2023-01-13T17:52:01.030Z,3.75
2023-01-13T17:56:02.665Z,3.45
2023-01-13T18:00:05.043Z,6.20
2023-01-13T18:04:20.709Z,6.43
2023-01-13T18:08:23.664Z,4.50
2023-01-13T18:12:25.431Z,5.93
2023-01-13T18:16:30.448Z,4.80
2023-01-13T18:20:50.578Z,4.35
2023-01-13T18:25:10.556Z,2.78
2023-01-13T18:29:12.169Z,4.38
2023-01-13T18:33:13.915Z,5.05
2023-01-13T18:37:16.688Z,4.85
2023-01-13T18:41:36.931Z,4.22
2023-01-13T18:45:38.503Z,6.03
2023-01-13T18:49:40.070Z,3.75
2023-01-13T18:53:41.761Z,3.75
2023-01-13T18:57:43.313Z,4.10
2023-01-13T19:01:45.117Z,4.68
2023-01-13T19:05:46.675Z,3.45
2023-01-13T19:09:49.997Z,4.05
2023-01-13T19:13:53.425Z,4.95
2023-01-13T19:17:55.015Z,3.25
2023-01-13T19:21:56.717Z,5.30
2023-01-13T19:26:00.069Z,5.00
2023-01-13T19:30:02.884Z,5.65
2023-01-13T19:34:05.637Z,4.35
2023-01-13T19:38:07.255Z,3.35
2023-01-13T19:42:29.888Z,4.93
2023-01-13T19:46:32.913Z,3.42
2023-01-13T19:50:38.916Z,2.78
2023-01-13T19:54:40.712Z,6.68
2023-01-13T19:58:43.953Z,5.03
2023-01-13T20:02:49.080Z,3.67
2023-01-13T20:06:50.597Z,2.88
2023-01-13T20:11:12.443Z,5.72
2023-01-13T20:15:14.222Z,2.95
2023-01-13T20:19:15.801Z,3.05
2023-01-13T20:23:17.480Z,3.22
2023-01-13T20:27:19.034Z,3.65
2023-01-13T20:31:20.697Z,2.70
2023-01-13T20:35:22.313Z,2.65
2023-01-13T20:39:28.845Z,2.72
2023-01-13T20:43:30.349Z,5.88
2023-01-13T20:47:32.195Z,3.67
2023-01-13T20:51:33.815Z,4.82
2023-01-13T20:55:35.351Z,3.97
2023-01-13T20:59:38.188Z,3.95
2023-01-13T21:03:39.864Z,5.25
2023-01-13T21:07:41.446Z,3.10
2023-01-13T21:12:01.691Z,2.83
2023-01-13T21:16:03.431Z,3.75
2023-01-13T21:20:06.934Z,3.33
2023-01-13T21:24:08.659Z,3.47
2023-01-13T21:28:11.693Z,6.72
2023-01-13T21:32:13.758Z,2.90
2023-01-13T21:36:15.732Z,5.13
2023-01-13T21:40:18.118Z,6.72
2023-01-13T21:44:39.974Z,3.38
2023-01-13T21:48:41.614Z,4.15
2023-01-13T21:52:43.320Z,4.13
2023-01-13T21:56:44.957Z,6.65
2023-01-13T22:00:49.019Z,4.55
2023-01-13T22:04:51.870Z,3.83
2023-01-13T22:08:59.880Z,5.18
2023-01-13T22:13:21.629Z,2.88
2023-01-13T22:17:26.427Z,4.05
2023-01-13T22:21:27.988Z,4.05
2023-01-13T22:25:29.773Z,6.18
2023-01-13T22:29:31.504Z,3.50
2023-01-13T22:33:33.089Z,3.00
2023-01-13T22:37:35.292Z,4.78
2023-01-13T22:41:36.922Z,3.08
2023-01-13T22:45:38.841Z,7.22
2023-01-13T22:49:42.060Z,4.25
2023-01-13T22:53:43.858Z,6.00
2023-01-13T22:57:48.094Z,4.45
2023-01-13T23:01:50.057Z,4.82
2023-01-13T23:05:57.283Z,3.88
2023-01-13T23:09:59.261Z,4.00
2023-01-13T23:14:03.794Z,7.40
2023-01-13T23:18:05.375Z,2.90
2023-01-13T23:22:06.920Z,3.60
2023-01-13T23:26:08.885Z,7.55
2023-01-13T23:30:11.376Z,6.40
2023-01-13T23:34:12.929Z,6.45
2023-01-13T23:38:14.478Z,3.33
2023-01-13T23:42:16.019Z,3.15
2023-01-13T23:46:17.938Z,3.10
2023-01-13T23:50:19.429Z,4.63
2023-01-13T23:54:21.021Z,2.78
2023-01-13T23:58:22.546Z,5.50
